Flight Track Log - Related Links

Times and Time Zones

All times are in EST time to prevent confusion due to time zone crossing. See the ASA525 flight status page for this flight to view local times or setup timezone preferences in your user account.

Time Position Orientation Groundspeed Altitude Reporting Facility
EST Latitude Longitude Course Direction KTS MPH feet Rate Location/Type
Sat 02:07:13 PM 34.1661 -118.3775 342° North 164 189 2,900  Level Los Angeles Center
Sat 02:08:15 PM 34.1494 -118.4422 253° West 227 261 5,100 2,613 Climbing Los Angeles Center
Sat 02:09:17 PM 34.2136 -118.4850 331° Northwest 265 305 8,300 3,145 Climbing Los Angeles Center
Sat 02:10:19 PM 34.2797 -118.5272 332° Northwest 267 307 11,600 2,710 Climbing Los Angeles Center
Sat 02:11:21 PM 34.3525 -118.5739 332° Northwest 296 341 13,900 2,952 Climbing Los Angeles Center
Sat 02:12:00 PM 34.6943 -118.4803 342° North  Level Estimated
Sat 02:12:23 PM 34.4350 -118.6250 333° Northwest 332 382 17,700  Level Los Angeles Center
Sat 02:13:26 PM 34.5342 -118.6881 332° Northwest 339 390 20,800 3,072 Climbing Los Angeles Center
Sat 02:14:28 PM 34.6206 -118.7447 332° Northwest 354 407 24,100 2,903 Climbing Los Angeles Center
Sat 02:15:30 PM 34.7044 -118.7983 332° Northwest 343 395 26,800 2,274 Climbing Los Angeles Center
Sat 02:16:32 PM 34.7906 -118.8539 332° Northwest 348 400 28,800 1,645 Climbing Los Angeles Center
Sat 02:17:34 PM 34.8989 -118.9003 341° North 366 421 30,200 1,258 Climbing Los Angeles Center
Sat 02:18:36 PM 34.9947 -118.9358 343° North 382 440 31,400 871 Climbing Los Angeles Center
Sat 02:19:38 PM 35.0997 -118.9756 343° North 393 452 32,000 290 Climbing Los Angeles Center
Sat 02:20:40 PM 35.2217 -119.0231 342° North 387 445 32,000  Level Los Angeles Center
Sat 02:21:42 PM 35.3239 -119.0619 343° North 387 445 32,000  Level Los Angeles Center
Sat 02:22:44 PM 35.4244 -119.1008 343° North 384 442 32,000  Level Los Angeles Center
Sat 02:23:46 PM 35.5222 -119.1397 342° North 377 434 32,000  Level Los Angeles Center
Sat 02:24:49 PM 35.6189 -119.1783 342° North 371 427 32,000  Level Los Angeles Center
Sat 02:25:51 PM 35.7353 -119.2236 342° North 367 422 32,000  Level Los Angeles Center
Sat 02:26:53 PM 35.8311 -119.2617 342° North 366 421 32,000  Level Los Angeles Center
Sat 02:27:55 PM 35.9261 -119.2989 342° North 362 417 32,000  Level Los Angeles Center
Sat 02:28:44 PM 36.0025 -119.3308 341° North 365 420 32,000  Level Oakland Center
Sat 02:29:46 PM 36.0972 -119.3681 342° North 361 415 32,000  Level Oakland Center
Sat 02:30:48 PM 36.1939 -119.4053 343° North 365 420 32,000  Level Oakland Center
Sat 02:31:49 PM 36.3100 -119.4528 342° North 366 421 32,000  Level Oakland Center
Sat 02:32:51 PM 36.4061 -119.4917 342° North 365 420 32,000  Level Oakland Center
Sat 02:33:53 PM 36.5039 -119.5300 343° North 367 422 32,000  Level Oakland Center
Sat 02:34:55 PM 36.6017 -119.5686 342° North 370 426 32,000  Level Oakland Center
Sat 02:35:56 PM 36.6997 -119.6092 342° North 372 428 32,000  Level Oakland Center
Sat 02:36:58 PM 36.7978 -119.6489 342° North 372 428 32,000  Level Oakland Center
Sat 02:38:00 PM 36.8964 -119.6906 341° North 374 430 32,000  Level Oakland Center
Sat 02:39:02 PM 37.0142 -119.7367 343° North 372 428 32,000  Level Oakland Center
Sat 02:40:04 PM 37.1133 -119.7781 342° North 375 432 32,000  Level Oakland Center
Sat 02:41:05 PM 37.2189 -119.8206 342° North 377 434 32,000  Level Oakland Center
Sat 02:42:08 PM 37.3183 -119.8608 342° North 375 432 32,000  Level Oakland Center
Sat 02:43:09 PM 37.4169 -119.9033 341° North 375 432 32,000  Level Oakland Center
Sat 02:44:11 PM 37.5156 -119.9442 342° North 373 429 32,000  Level Oakland Center
Sat 02:45:13 PM 37.6158 -119.9864 342° North 378 435 32,000  Level Oakland Center
Sat 02:46:15 PM 37.7150 -120.0272 342° North 376 433 32,000  Level Oakland Center
Sat 02:47:17 PM 37.8322 -120.0761 342° North 371 427 32,000  Level Oakland Center
Sat 02:48:18 PM 37.9317 -120.1125 344° North 372 428 32,000  Level Oakland Center
Sat 02:49:20 PM 38.0300 -120.1403 347° North 368 423 32,000  Level Oakland Center
Sat 02:50:22 PM 38.1247 -120.1711 346° North 357 411 32,000  Level Oakland Center
Sat 02:51:24 PM 38.2208 -120.2008 346° North 357 411 32,000  Level Oakland Center
Sat 02:52:26 PM 38.3147 -120.2314 346° North 353 406 32,000  Level Oakland Center
Sat 02:53:27 PM 38.4292 -120.2644 347° North 353 406 32,000  Level Oakland Center
Sat 02:54:29 PM 38.5228 -120.2944 346° North 350 403 32,000  Level Oakland Center
Sat 02:55:31 PM 38.6169 -120.3233 347° North 350 403 32,000  Level Oakland Center
Sat 02:56:33 PM 38.7108 -120.3539 346° North 349 402 32,000  Level Oakland Center
Sat 02:57:35 PM 38.8067 -120.3836 346° North 353 406 32,000  Level Oakland Center
Sat 02:58:36 PM 38.9000 -120.4119 347° North 350 403 32,000  Level Oakland Center
Sat 02:59:38 PM 38.9928 -120.4411 346° North 347 399 32,000  Level Oakland Center
Sat 03:00:40 PM 39.1050 -120.4775 346° North 348 400 32,000  Level Oakland Center
Sat 03:01:42 PM 39.1972 -120.5061 346° North 343 395 32,000  Level Oakland Center
Sat 03:02:43 PM 39.2908 -120.5358 346° North 345 397 32,000  Level Oakland Center
Sat 03:03:45 PM 39.3850 -120.5647 347° North 347 399 32,000  Level Oakland Center
Sat 03:04:47 PM 39.4789 -120.5958 346° North 349 402 32,000  Level Oakland Center
Sat 03:05:49 PM 39.5733 -120.6250 347° North 349 402 32,000  Level Oakland Center
Sat 03:06:51 PM 39.6878 -120.6619 346° North 352 405 32,000  Level Oakland Center
Sat 03:07:52 PM 39.7819 -120.6928 346° North 350 403 32,000  Level Oakland Center
Sat 03:08:54 PM 39.8764 -120.7242 346° North 350 403 32,000  Level Oakland Center
Sat 03:09:56 PM 39.9689 -120.7544 346° North 345 397 32,000  Level Oakland Center
Sat 03:10:58 PM 40.0675 -120.7853 347° North 351 404 32,000  Level Oakland Center
Sat 03:12:00 PM 40.1617 -120.8161 346° North 350 403 32,000  Level Oakland Center
Sat 03:13:01 PM 40.2556 -120.8469 346° North 350 403 32,000  Level Oakland Center
Sat 03:14:03 PM 40.3508 -120.8778 346° North 352 405 32,000  Level Oakland Center
Sat 03:15:05 PM 40.4644 -120.9156 346° North 343 395 32,000  Level Oakland Center
Sat 03:16:07 PM 40.5611 -120.9497 345° North 347 399 32,000  Level Oakland Center
Sat 03:17:08 PM 40.6550 -120.9800 346° North 344 396 32,000  Level Oakland Center
Sat 03:18:10 PM 40.7475 -121.0167 343° North 349 402 32,000  Level Oakland Center
Sat 03:19:12 PM 40.8461 -121.0419 349° North 358 412 32,000  Level Oakland Center
Sat 03:20:14 PM 40.9394 -121.0739 346° North 346 398 32,000  Level Oakland Center
Sat 03:21:15 PM 41.0339 -121.1033 347° North 348 400 32,000  Level Oakland Center
Sat 03:22:17 PM 41.1492 -121.1378 347° North 352 405 32,000  Level Oakland Center
Sat 03:23:33 PM 41.2653 -121.1747 347° North 355 409 32,000  Level Seattle Center
Sat 03:24:33 PM 41.3625 -121.2031 348° North 359 413 32,000  Level Seattle Center
Sat 03:25:34 PM 41.4606 -121.2314 348° North 362 417 32,000  Level Seattle Center
Sat 03:26:35 PM 41.5578 -121.2606 347° North 361 415 32,000  Level Seattle Center
Sat 03:27:36 PM 41.6542 -121.2894 347° North 360 414 32,000  Level Seattle Center
Sat 03:28:37 PM 41.7494 -121.3158 348° North 352 405 32,000  Level Seattle Center
Sat 03:29:38 PM 41.8442 -121.3464 346° North 354 407 32,000  Level Seattle Center
Sat 03:30:39 PM 41.9389 -121.3739 348° North 353 406 32,000  Level Seattle Center
Sat 03:31:40 PM 42.0508 -121.4069 348° North 349 402 32,000  Level Seattle Center
Sat 03:32:41 PM 42.1456 -121.4356 347° North 354 407 32,000  Level Seattle Center
Sat 03:33:42 PM 42.2406 -121.4636 348° North 360 414 32,000  Level Seattle Center
Sat 03:34:42 PM 42.3344 -121.4936 347° North 351 404 32,000 50 Level Seattle Center
Sat 03:35:43 PM 42.4292 -121.5233 347° North 352 405 32,100  Climbing Seattle Center
Sat 03:36:44 PM 42.5256 -121.5519 348° North 358 412 32,000 -49 Descending Seattle Center
Sat 03:37:45 PM 42.6208 -121.5811 347° North 354 407 32,000  Level Seattle Center
Sat 03:38:46 PM 42.7153 -121.6081 348° North 347 399 32,000  Level Seattle Center
Sat 03:39:47 PM 42.8094 -121.6414 345° North 352 405 32,000  Level Seattle Center
Sat 03:40:48 PM 42.9039 -121.6675 349° North 349 402 32,000  Level Seattle Center
Sat 03:41:49 PM 43.0167 -121.7036 347° North 349 402 32,000  Level Seattle Center
Sat 03:42:50 PM 43.1108 -121.7300 348° North 346 398 32,000  Level Seattle Center
Sat 03:43:51 PM 43.2053 -121.7636 345° North 350 403 32,000  Level Seattle Center
Sat 03:44:52 PM 43.2992 -121.7950 346° North 349 402 32,000  Level Seattle Center
Sat 03:45:52 PM 43.3931 -121.8244 347° North 348 400 32,000  Level Seattle Center
Sat 03:46:53 PM 43.4875 -121.8517 348° North 347 399 32,000  Level Seattle Center
Sat 03:47:54 PM 43.5897 -121.8833 347° North 345 397 32,000  Level Seattle Center
Sat 03:48:55 PM 43.6836 -121.9128 347° North 347 399 32,000  Level Seattle Center
Sat 03:49:56 PM 43.7781 -121.9431 347° North 349 402 32,000  Level Seattle Center
Sat 03:50:57 PM 43.8758 -121.9708 348° North 357 411 32,000  Level Seattle Center
Sat 03:51:58 PM 43.9706 -122.0019 347° North 352 405 32,000  Level Seattle Center
Sat 03:52:59 PM 44.0647 -122.0319 347° North 350 403 32,000  Level Seattle Center
Sat 03:53:59 PM 44.1583 -122.0619 347° North 347 399 32,000  Level Seattle Center
Sat 03:55:00 PM 44.2528 -122.0925 347° North 348 400 32,000  Level Seattle Center
Sat 03:56:01 PM 44.3456 -122.1236 347° North 344 396 32,000  Level Seattle Center
Sat 03:57:02 PM 44.4386 -122.1536 347° North 344 396 32,000  Level Seattle Center
Sat 03:58:03 PM 44.5317 -122.1847 347° North 345 397 32,000  Level Seattle Center
Sat 03:59:04 PM 44.6269 -122.2161 347° North 350 403 32,000  Level Seattle Center
Sat 04:00:05 PM 44.7211 -122.2472 347° North 348 400 32,000  Level Seattle Center
Sat 04:01:06 PM 44.8175 -122.2792 347° North 352 405 32,000  Level Seattle Center
Sat 04:02:07 PM 44.9181 -122.3128 347° North 351 404 32,000  Level Seattle Center
Sat 04:03:07 PM 45.0131 -122.3447 347° North 352 405 32,000  Level Seattle Center
Sat 04:04:08 PM 45.1069 -122.3761 347° North 350 403 32,000  Level Seattle Center
Sat 04:05:09 PM 45.2039 -122.4072 347° North 356 410 32,000  Level Seattle Center
Sat 04:06:10 PM 45.3161 -122.4461 346° North 351 404 32,000  Level Seattle Center
Sat 04:07:11 PM 45.4108 -122.4764 347° North 351 404 32,000  Level Seattle Center
Sat 04:08:12 PM 45.5069 -122.5092 347° North 356 410 32,000  Level Seattle Center
Sat 04:09:12 PM 45.6022 -122.5417 347° North 354 407 32,000  Level Seattle Center
Sat 04:10:13 PM 45.6983 -122.5739 347° North 356 410 32,000  Level Seattle Center
Sat 04:11:14 PM 45.7950 -122.6031 348° North 357 411 32,000  Level Seattle Center
Sat 04:12:15 PM 45.8914 -122.6261 351° North 354 407 32,000  Level Seattle Center
Sat 04:13:16 PM 45.9881 -122.6506 350° North 354 407 32,000  Level Seattle Center
Sat 04:14:17 PM 46.0853 -122.6753 350° North 356 410 32,000  Level Seattle Center
Sat 04:15:17 PM 46.1822 -122.6944 352° North 354 407 32,000 -694 Level Seattle Center
Sat 04:16:18 PM 46.2775 -122.7131 352° North 354 407 30,600 -1,967 Descending Seattle Center
Sat 04:17:19 PM 46.3903 -122.7275 355° North 341 392 28,000 -2,361 Descending Seattle Center
Sat 04:18:20 PM 46.4819 -122.7292 359° North 334 384 25,800 -2,164 Descending Seattle Center
Sat 04:19:21 PM 46.5739 -122.7331 358° North 330 380 23,600 -2,115 Descending Seattle Center
Sat 04:20:22 PM 46.6644 -122.7350 359° North 326 375 21,500 -2,175 Descending Seattle Center
Sat 04:20:41 PM 46.6972 -122.7369 358° North 327 376 20,700 -2,066 Descending Seattle Center
Sat 04:21:23 PM 46.7547 -122.7400 358° North 324 373 19,400 -1,745 Descending Seattle Center
Sat 04:21:36 PM 46.7789 -122.7353 North 325 374 19,100 -1,279 Descending Seattle Center
Sat 04:22:24 PM 46.8356 -122.6758 36° Northeast 361 415 18,100 -1,527 Descending Seattle Center
Sat 04:22:31 PM 46.8492 -122.6619 35° Northeast 341 392 17,700 -2,507 Descending Seattle Center
Sat 04:23:31 PM 46.9236 -122.5797 37° Northeast 339 390 15,300 -1,684 Descending Seattle Center
Sat 04:24:25 PM 46.9989 -122.5339 23° Northeast 308 354 14,500 -885 Descending Seattle Center
Sat 04:24:32 PM 47.0050 -122.5325 North 306 352 14,400 -1,770 Descending Seattle Center
Sat 04:25:26 PM 47.0778 -122.5006 17° North 295 339 12,700 -1,770 Descending Seattle Center
Sat 04:25:33 PM 47.0853 -122.4986 10° North 292 336 12,600 -1,412 Descending Seattle Center
Sat 04:26:34 PM 47.1639 -122.4850 North 282 325 11,100 -1,304 Descending Seattle Center
Sat 04:27:28 PM 47.2319 -122.4731 North 273 314 10,100 -985 Descending Seattle Center
Sat 04:27:41 PM 47.2492 -122.4711 North 264 304 10,000 -984 Descending Seattle Center
Sat 04:28:29 PM 47.3011 -122.4633 North 252 290 9,100 -1,180 Descending Seattle Center
Sat 04:28:42 PM 47.3156 -122.4611 North 245 282 8,800 -984 Descending Seattle Center
Sat 04:29:30 PM 47.3669 -122.4547 North 238 274 8,100 -1,000 Descending Seattle Center
Sat 04:29:42 PM 47.3806 -122.4550 359° North 233 268 7,800 -1,500 Descending Seattle Center
Sat 04:30:30 PM 47.4303 -122.4556 360° North 227 261 6,600 -1,475 Descending Seattle Center
Sat 04:30:43 PM 47.4453 -122.4556 360° North 231 266 6,300 -1,279 Descending Seattle Center
Sat 04:31:31 PM 47.5008 -122.4542 North 233 268 5,300 -1,180 Descending Seattle Center
Sat 04:31:44 PM 47.5117 -122.4550 357° North 235 270 5,100 -1,180 Descending Seattle Center
Sat 04:32:32 PM 47.5647 -122.4558 359° North 229 264 4,100 -1,082 Descending Seattle Center
Sat 04:32:45 PM 47.5744 -122.4567 357° North 229 264 4,000 -590 Descending Seattle Center
Sat 04:33:33 PM 47.6081 -122.4167 39° Northeast 208 239 3,500 -689 Descending Seattle Center
Sat 04:33:46 PM 47.6100 -122.4042 77° East 208 239 3,300 -393 Descending Seattle Center
Sat 04:34:34 PM 47.6050 -122.3381 96° East 188 216 3,100 -300 Descending Seattle Center
Sat 04:34:46 PM 47.5958 -122.3300 149° Southeast 176 203 3,000 -689 Descending Seattle Center
Sat 04:35:35 PM 47.5606 -122.3175 167° South 171 197 2,400 -885 Descending Seattle Center
Sat 04:35:47 PM 47.5489 -122.3200 188° South 167 192 2,100 -885 Descending Seattle Center
Sat 04:36:36 PM 47.5153 -122.3175 177° South 163 188 1,500 -873 Descending Seattle Center
Sat 04:36:42 PM 47.5106 -122.3181 185° South 146 168 1,300 -787 Descending Seattle Center
Sat 04:37:37 PM 47.4769 -122.3183 180° South 141 162 700 -689 Descending Seattle Center
Sat 04:37:43 PM 47.4711 -122.3200 191° South 136 157 600 -393 Descending Seattle Center
Sat 04:38:38 PM 47.4381 -122.3189 179° South 141 162 300 -327 Descending Seattle Center
Sat 04:40:00 PM 47.4333 -122.3000 155° Southeast  Level FlightAware Approximate

Login

Don't have an account? Register now (free) for customized features, flight alerts, and more!